SEW weather

Siwa Oasis North Airport
Siwa, Matruh Governorate, Egypt

Public forecast

Using degrees Celsius for public forecast. Weather courtesy of forecast.io.

METAR (pilot weather report)

Closest report is Mersa Matruh Airport, 148.4 nm (274.9 km) NE. Retrieved 2019/05/22 18:00 UTC (24 minutes ago):

HEMM 221800Z 12006KT CAVOK 26/17 Q1011 NOSIG

TAF (pilot weather forecast)

Closest forecast is Mersa Matruh Airport, 148.4 nm (274.9 km) NE. Retrieved 2019/05/22 18:09 UTC (15 minutes ago):

TAF HEMM 221700Z 2218/2324 12011KT CAVOK TEMPO 2303/2306 VRB03KT 3000 BR NSC